sensor_id;sensor_type;location;lat;lon;timestamp;P1;durP1;ratioP1;P2;durP2;ratioP2
73585;SDS011;61865;50.232;18.614;2023-05-10T00:01:09;15.90;;;7.13;;
73585;SDS011;61865;50.232;18.614;2023-05-10T00:03:31;11.15;;;6.95;;
73585;SDS011;61865;50.232;18.614;2023-05-10T00:05:53;12.57;;;6.80;;
73585;SDS011;61865;50.232;18.614;2023-05-10T00:08:15;11.38;;;7.60;;
73585;SDS011;61865;50.232;18.614;2023-05-10T00:10:37;13.10;;;7.63;;
73585;SDS011;61865;50.232;18.614;2023-05-10T00:13:01;12.75;;;7.70;;
73585;SDS011;61865;50.232;18.614;2023-05-10T00:15:24;12.05;;;7.32;;
73585;SDS011;61865;50.232;18.614;2023-05-10T00:17:46;14.35;;;7.72;;
73585;SDS011;61865;50.232;18.614;2023-05-10T00:20:08;12.07;;;7.57;;
73585;SDS011;61865;50.232;18.614;2023-05-10T00:22:31;12.15;;;7.32;;
73585;SDS011;61865;50.232;18.614;2023-05-10T00:24:53;12.73;;;8.30;;
73585;SDS011;61865;50.232;18.614;2023-05-10T00:27:15;14.82;;;7.55;;
73585;SDS011;61865;50.232;18.614;2023-05-10T00:29:37;14.13;;;7.55;;
73585;SDS011;61865;50.232;18.614;2023-05-10T00:32:00;16.80;;;8.02;;
73585;SDS011;61865;50.232;18.614;2023-05-10T00:34:22;12.57;;;7.72;;
73585;SDS011;61865;50.232;18.614;2023-05-10T00:36:44;13.55;;;7.90;;
73585;SDS011;61865;50.232;18.614;2023-05-10T00:39:06;11.50;;;7.65;;
73585;SDS011;61865;50.232;18.614;2023-05-10T00:41:28;15.88;;;8.27;;
73585;SDS011;61865;50.232;18.614;2023-05-10T00:43:52;13.93;;;8.32;;
73585;SDS011;61865;50.232;18.614;2023-05-10T00:46:14;14.35;;;8.27;;
73585;SDS011;61865;50.232;18.614;2023-05-10T00:48:38;14.85;;;7.72;;
73585;SDS011;61865;50.232;18.614;2023-05-10T00:51:00;12.70;;;7.55;;
73585;SDS011;61865;50.232;18.614;2023-05-10T00:53:22;11.73;;;7.90;;
73585;SDS011;61865;50.232;18.614;2023-05-10T00:55:45;13.43;;;7.90;;
73585;SDS011;61865;50.232;18.614;2023-05-10T00:58:07;13.13;;;8.65;;
73585;SDS011;61865;50.232;18.614;2023-05-10T01:00:29;13.35;;;8.10;;
73585;SDS011;61865;50.232;18.614;2023-05-10T01:02:52;13.05;;;8.20;;
73585;SDS011;61865;50.232;18.614;2023-05-10T01:05:16;15.63;;;7.82;;
73585;SDS011;61865;50.232;18.614;2023-05-10T01:07:38;17.63;;;8.43;;
73585;SDS011;61865;50.232;18.614;2023-05-10T01:10:01;13.98;;;8.65;;
73585;SDS011;61865;50.232;18.614;2023-05-10T01:12:23;13.60;;;8.25;;
73585;SDS011;61865;50.232;18.614;2023-05-10T01:14:45;15.18;;;8.90;;
73585;SDS011;61865;50.232;18.614;2023-05-10T01:17:07;15.95;;;8.43;;
73585;SDS011;61865;50.232;18.614;2023-05-10T01:19:31;12.85;;;8.13;;
73585;SDS011;61865;50.232;18.614;2023-05-10T01:22:00;14.45;;;9.02;;
73585;SDS011;61865;50.232;18.614;2023-05-10T01:30:43;17.90;;;8.75;;
73585;SDS011;61865;50.232;18.614;2023-05-10T01:33:26;15.15;;;8.68;;
73585;SDS011;61865;50.232;18.614;2023-05-10T01:35:55;17.75;;;8.55;;
73585;SDS011;61865;50.232;18.614;2023-05-10T01:38:22;17.77;;;8.90;;
73585;SDS011;61865;50.232;18.614;2023-05-10T01:41:03;13.82;;;8.35;;
73585;SDS011;61865;50.232;18.614;2023-05-10T01:43:33;12.95;;;8.50;;
73585;SDS011;61865;50.232;18.614;2023-05-10T01:46:02;12.75;;;8.98;;
73585;SDS011;61865;50.232;18.614;2023-05-10T01:48:31;13.85;;;7.70;;
73585;SDS011;61865;50.232;18.614;2023-05-10T01:50:54;12.95;;;7.97;;
73585;SDS011;61865;50.232;18.614;2023-05-10T01:53:18;12.77;;;7.90;;
73585;SDS011;61865;50.232;18.614;2023-05-10T01:55:43;12.43;;;8.38;;
73585;SDS011;61865;50.232;18.614;2023-05-10T01:58:10;14.88;;;8.57;;
73585;SDS011;61865;50.232;18.614;2023-05-10T02:00:35;14.95;;;8.48;;
73585;SDS011;61865;50.232;18.614;2023-05-10T02:03:01;20.00;;;8.52;;
73585;SDS011;61865;50.232;18.614;2023-05-10T02:05:27;11.25;;;8.52;;
73585;SDS011;61865;50.232;18.614;2023-05-10T02:07:51;10.95;;;8.05;;
73585;SDS011;61865;50.232;18.614;2023-05-10T02:10:14;13.68;;;8.77;;
73585;SDS011;61865;50.232;18.614;2023-05-10T02:12:41;12.52;;;8.50;;
73585;SDS011;61865;50.232;18.614;2023-05-10T02:15:04;12.68;;;8.38;;
73585;SDS011;61865;50.232;18.614;2023-05-10T02:17:29;14.32;;;8.27;;
73585;SDS011;61865;50.232;18.614;2023-05-10T02:19:52;22.23;;;9.02;;
73585;SDS011;61865;50.232;18.614;2023-05-10T02:22:18;13.90;;;8.82;;
73585;SDS011;61865;50.232;18.614;2023-05-10T02:24:41;12.77;;;8.90;;
73585;SDS011;61865;50.232;18.614;2023-05-10T02:27:03;15.23;;;8.32;;
73585;SDS011;61865;50.232;18.614;2023-05-10T02:29:25;16.08;;;8.68;;
73585;SDS011;61865;50.232;18.614;2023-05-10T02:31:51;13.65;;;9.20;;
73585;SDS011;61865;50.232;18.614;2023-05-10T02:34:15;15.13;;;10.30;;
73585;SDS011;61865;50.232;18.614;2023-05-10T02:36:37;14.00;;;10.02;;
73585;SDS011;61865;50.232;18.614;2023-05-10T02:39:02;14.88;;;10.70;;
73585;SDS011;61865;50.232;18.614;2023-05-10T02:41:24;19.15;;;11.20;;
73585;SDS011;61865;50.232;18.614;2023-05-10T02:43:48;17.85;;;11.45;;
73585;SDS011;61865;50.232;18.614;2023-05-10T02:46:11;16.52;;;10.05;;
73585;SDS011;61865;50.232;18.614;2023-05-10T02:48:33;14.43;;;10.45;;
73585;SDS011;61865;50.232;18.614;2023-05-10T02:50:57;15.23;;;10.15;;
73585;SDS011;61865;50.232;18.614;2023-05-10T02:53:28;13.30;;;10.55;;
73585;SDS011;61865;50.232;18.614;2023-05-10T02:55:54;16.20;;;9.35;;
73585;SDS011;61865;50.232;18.614;2023-05-10T02:58:19;14.65;;;8.60;;
73585;SDS011;61865;50.232;18.614;2023-05-10T03:00:42;13.30;;;8.85;;
73585;SDS011;61865;50.232;18.614;2023-05-10T03:03:05;16.38;;;8.43;;
73585;SDS011;61865;50.232;18.614;2023-05-10T03:05:27;14.32;;;9.27;;
73585;SDS011;61865;50.232;18.614;2023-05-10T03:07:49;14.15;;;9.00;;
73585;SDS011;61865;50.232;18.614;2023-05-10T03:10:12;14.05;;;9.10;;
73585;SDS011;61865;50.232;18.614;2023-05-10T03:12:41;13.18;;;7.97;;
73585;SDS011;61865;50.232;18.614;2023-05-10T03:15:14;11.63;;;7.25;;
73585;SDS011;61865;50.232;18.614;2023-05-10T03:17:45;13.20;;;8.18;;
73585;SDS011;61865;50.232;18.614;2023-05-10T03:20:15;12.82;;;9.00;;
73585;SDS011;61865;50.232;18.614;2023-05-10T03:22:44;12.43;;;8.35;;
73585;SDS011;61865;50.232;18.614;2023-05-10T03:25:08;15.82;;;8.88;;
73585;SDS011;61865;50.232;18.614;2023-05-10T03:27:32;12.85;;;8.23;;
73585;SDS011;61865;50.232;18.614;2023-05-10T03:29:57;17.20;;;8.60;;
73585;SDS011;61865;50.232;18.614;2023-05-10T03:32:20;13.52;;;8.43;;
73585;SDS011;61865;50.232;18.614;2023-05-10T03:34:43;11.40;;;8.35;;
73585;SDS011;61865;50.232;18.614;2023-05-10T03:37:05;13.20;;;8.73;;
73585;SDS011;61865;50.232;18.614;2023-05-10T03:39:26;16.67;;;8.88;;
73585;SDS011;61865;50.232;18.614;2023-05-10T03:41:48;14.60;;;8.43;;
73585;SDS011;61865;50.232;18.614;2023-05-10T03:44:10;20.27;;;8.40;;
73585;SDS011;61865;50.232;18.614;2023-05-10T03:46:34;13.88;;;8.93;;
73585;SDS011;61865;50.232;18.614;2023-05-10T03:48:56;14.80;;;8.98;;
73585;SDS011;61865;50.232;18.614;2023-05-10T03:51:17;17.48;;;8.65;;
73585;SDS011;61865;50.232;18.614;2023-05-10T03:53:40;16.98;;;8.52;;
73585;SDS011;61865;50.232;18.614;2023-05-10T03:56:02;13.98;;;9.25;;
73585;SDS011;61865;50.232;18.614;2023-05-10T03:58:24;14.23;;;8.70;;
73585;SDS011;61865;50.232;18.614;2023-05-10T04:00:46;12.77;;;8.10;;
73585;SDS011;61865;50.232;18.614;2023-05-10T04:03:09;15.68;;;8.43;;
73585;SDS011;61865;50.232;18.614;2023-05-10T04:05:31;14.50;;;8.27;;
73585;SDS011;61865;50.232;18.614;2023-05-10T04:07:53;13.85;;;8.35;;
73585;SDS011;61865;50.232;18.614;2023-05-10T04:10:15;12.68;;;8.13;;
73585;SDS011;61865;50.232;18.614;2023-05-10T04:12:37;11.98;;;8.20;;
73585;SDS011;61865;50.232;18.614;2023-05-10T04:14:59;12.93;;;8.45;;
73585;SDS011;61865;50.232;18.614;2023-05-10T04:17:21;14.02;;;8.30;;
73585;SDS011;61865;50.232;18.614;2023-05-10T04:19:44;14.65;;;8.40;;
73585;SDS011;61865;50.232;18.614;2023-05-10T04:22:07;15.98;;;8.60;;
73585;SDS011;61865;50.232;18.614;2023-05-10T04:24:28;15.85;;;8.95;;
73585;SDS011;61865;50.232;18.614;2023-05-10T04:26:50;12.68;;;7.90;;
73585;SDS011;61865;50.232;18.614;2023-05-10T04:29:12;12.07;;;8.50;;
73585;SDS011;61865;50.232;18.614;2023-05-10T04:31:34;11.73;;;7.68;;
73585;SDS011;61865;50.232;18.614;2023-05-10T04:33:56;13.82;;;8.85;;
73585;SDS011;61865;50.232;18.614;2023-05-10T04:36:19;15.15;;;8.35;;
73585;SDS011;61865;50.232;18.614;2023-05-10T04:38:41;18.80;;;8.18;;
73585;SDS011;61865;50.232;18.614;2023-05-10T04:41:04;16.50;;;8.63;;
73585;SDS011;61865;50.232;18.614;2023-05-10T04:43:27;14.55;;;7.15;;
73585;SDS011;61865;50.232;18.614;2023-05-10T04:45:49;16.95;;;7.47;;
73585;SDS011;61865;50.232;18.614;2023-05-10T04:48:11;14.07;;;7.88;;
73585;SDS011;61865;50.232;18.614;2023-05-10T04:50:33;11.48;;;7.72;;
73585;SDS011;61865;50.232;18.614;2023-05-10T04:52:56;16.60;;;7.63;;
73585;SDS011;61865;50.232;18.614;2023-05-10T04:55:18;13.23;;;7.22;;
73585;SDS011;61865;50.232;18.614;2023-05-10T04:57:41;23.42;;;7.55;;
73585;SDS011;61865;50.232;18.614;2023-05-10T05:00:03;17.27;;;6.93;;
73585;SDS011;61865;50.232;18.614;2023-05-10T05:02:26;17.83;;;7.18;;
73585;SDS011;61865;50.232;18.614;2023-05-10T05:04:48;13.65;;;6.68;;
73585;SDS011;61865;50.232;18.614;2023-05-10T05:07:10;12.48;;;7.65;;
73585;SDS011;61865;50.232;18.614;2023-05-10T05:09:33;11.05;;;6.93;;
73585;SDS011;61865;50.232;18.614;2023-05-10T05:11:55;11.18;;;6.57;;
73585;SDS011;61865;50.232;18.614;2023-05-10T05:14:17;18.27;;;6.90;;
73585;SDS011;61865;50.232;18.614;2023-05-10T05:16:40;10.15;;;6.70;;
73585;SDS011;61865;50.232;18.614;2023-05-10T05:19:02;10.40;;;6.32;;
73585;SDS011;61865;50.232;18.614;2023-05-10T05:21:24;10.68;;;6.63;;
73585;SDS011;61865;50.232;18.614;2023-05-10T05:23:47;11.93;;;6.35;;
73585;SDS011;61865;50.232;18.614;2023-05-10T05:26:10;9.55;;;5.43;;
73585;SDS011;61865;50.232;18.614;2023-05-10T05:28:32;16.02;;;7.25;;
73585;SDS011;61865;50.232;18.614;2023-05-10T05:30:57;11.05;;;6.43;;
73585;SDS011;61865;50.232;18.614;2023-05-10T05:33:19;14.57;;;6.47;;
73585;SDS011;61865;50.232;18.614;2023-05-10T05:35:41;13.60;;;6.65;;
73585;SDS011;61865;50.232;18.614;2023-05-10T05:38:07;11.90;;;7.80;;
73585;SDS011;61865;50.232;18.614;2023-05-10T05:40:29;12.73;;;6.65;;
73585;SDS011;61865;50.232;18.614;2023-05-10T05:42:52;13.63;;;6.15;;
73585;SDS011;61865;50.232;18.614;2023-05-10T05:45:14;11.82;;;5.95;;
73585;SDS011;61865;50.232;18.614;2023-05-10T05:47:36;10.55;;;5.82;;
73585;SDS011;61865;50.232;18.614;2023-05-10T05:49:58;10.23;;;5.97;;
73585;SDS011;61865;50.232;18.614;2023-05-10T05:52:20;12.95;;;5.38;;
73585;SDS011;61865;50.232;18.614;2023-05-10T05:54:42;11.25;;;5.40;;
73585;SDS011;61865;50.232;18.614;2023-05-10T05:57:04;9.73;;;4.95;;
73585;SDS011;61865;50.232;18.614;2023-05-10T05:59:27;13.95;;;5.13;;
73585;SDS011;61865;50.232;18.614;2023-05-10T06:01:49;10.25;;;5.50;;
73585;SDS011;61865;50.232;18.614;2023-05-10T06:04:11;14.77;;;5.65;;
73585;SDS011;61865;50.232;18.614;2023-05-10T06:06:33;10.88;;;5.05;;
73585;SDS011;61865;50.232;18.614;2023-05-10T06:08:55;29.70;;;6.35;;
73585;SDS011;61865;50.232;18.614;2023-05-10T06:11:17;11.32;;;5.70;;
73585;SDS011;61865;50.232;18.614;2023-05-10T06:13:40;10.30;;;5.47;;
73585;SDS011;61865;50.232;18.614;2023-05-10T06:16:04;12.27;;;5.07;;
73585;SDS011;61865;50.232;18.614;2023-05-10T06:18:26;15.18;;;5.45;;
73585;SDS011;61865;50.232;18.614;2023-05-10T06:20:49;8.38;;;4.85;;
73585;SDS011;61865;50.232;18.614;2023-05-10T06:23:11;9.60;;;4.22;;
73585;SDS011;61865;50.232;18.614;2023-05-10T06:25:33;11.57;;;4.10;;
73585;SDS011;61865;50.232;18.614;2023-05-10T06:27:55;6.90;;;3.53;;
73585;SDS011;61865;50.232;18.614;2023-05-10T06:30:18;10.82;;;3.80;;
73585;SDS011;61865;50.232;18.614;2023-05-10T06:32:44;6.72;;;3.47;;
73585;SDS011;61865;50.232;18.614;2023-05-10T06:35:06;11.10;;;3.95;;
73585;SDS011;61865;50.232;18.614;2023-05-10T06:37:29;9.20;;;3.40;;
73585;SDS011;61865;50.232;18.614;2023-05-10T06:39:51;11.52;;;3.42;;
73585;SDS011;61865;50.232;18.614;2023-05-10T06:42:13;7.85;;;3.50;;
73585;SDS011;61865;50.232;18.614;2023-05-10T06:44:35;13.35;;;3.40;;
73585;SDS011;61865;50.232;18.614;2023-05-10T06:46:56;7.70;;;3.42;;
73585;SDS011;61865;50.232;18.614;2023-05-10T06:49:20;7.57;;;3.40;;
73585;SDS011;61865;50.232;18.614;2023-05-10T06:51:42;5.93;;;3.55;;
73585;SDS011;61865;50.232;18.614;2023-05-10T06:54:03;6.70;;;3.22;;
73585;SDS011;61865;50.232;18.614;2023-05-10T06:56:25;8.15;;;3.38;;
73585;SDS011;61865;50.232;18.614;2023-05-10T06:58:47;6.40;;;3.60;;
73585;SDS011;61865;50.232;18.614;2023-05-10T07:01:09;7.03;;;3.85;;
73585;SDS011;61865;50.232;18.614;2023-05-10T07:03:31;9.60;;;3.40;;
73585;SDS011;61865;50.232;18.614;2023-05-10T07:05:56;8.65;;;3.58;;
73585;SDS011;61865;50.232;18.614;2023-05-10T07:08:23;4.85;;;2.78;;
73585;SDS011;61865;50.232;18.614;2023-05-10T07:10:45;5.85;;;2.95;;
73585;SDS011;61865;50.232;18.614;2023-05-10T07:13:06;6.57;;;3.17;;
73585;SDS011;61865;50.232;18.614;2023-05-10T07:15:29;6.55;;;3.00;;
73585;SDS011;61865;50.232;18.614;2023-05-10T07:17:51;4.80;;;2.83;;
73585;SDS011;61865;50.232;18.614;2023-05-10T07:20:13;8.13;;;3.40;;
73585;SDS011;61865;50.232;18.614;2023-05-10T07:22:37;5.80;;;3.50;;
73585;SDS011;61865;50.232;18.614;2023-05-10T07:24:59;7.20;;;3.00;;
73585;SDS011;61865;50.232;18.614;2023-05-10T07:27:20;5.00;;;2.75;;
73585;SDS011;61865;50.232;18.614;2023-05-10T07:29:42;6.72;;;3.05;;
73585;SDS011;61865;50.232;18.614;2023-05-10T07:32:04;5.45;;;2.80;;
73585;SDS011;61865;50.232;18.614;2023-05-10T07:34:27;10.70;;;3.10;;
73585;SDS011;61865;50.232;18.614;2023-05-10T07:36:50;5.20;;;3.00;;
73585;SDS011;61865;50.232;18.614;2023-05-10T07:39:13;6.70;;;3.17;;
73585;SDS011;61865;50.232;18.614;2023-05-10T07:41:35;5.82;;;3.22;;
73585;SDS011;61865;50.232;18.614;2023-05-10T07:43:58;8.80;;;3.45;;
73585;SDS011;61865;50.232;18.614;2023-05-10T07:46:20;5.18;;;2.88;;
73585;SDS011;61865;50.232;18.614;2023-05-10T07:48:42;5.78;;;3.05;;
73585;SDS011;61865;50.232;18.614;2023-05-10T07:51:04;4.72;;;2.80;;
73585;SDS011;61865;50.232;18.614;2023-05-10T07:53:29;5.28;;;3.10;;
73585;SDS011;61865;50.232;18.614;2023-05-10T07:55:52;9.27;;;3.55;;
73585;SDS011;61865;50.232;18.614;2023-05-10T07:58:18;9.60;;;2.83;;
73585;SDS011;61865;50.232;18.614;2023-05-10T08:00:40;4.60;;;2.75;;
73585;SDS011;61865;50.232;18.614;2023-05-10T08:03:02;7.18;;;2.90;;
73585;SDS011;61865;50.232;18.614;2023-05-10T08:05:24;6.63;;;2.97;;
73585;SDS011;61865;50.232;18.614;2023-05-10T08:07:46;7.93;;;2.72;;
73585;SDS011;61865;50.232;18.614;2023-05-10T08:10:08;7.05;;;2.85;;
73585;SDS011;61865;50.232;18.614;2023-05-10T08:12:33;7.78;;;2.78;;
73585;SDS011;61865;50.232;18.614;2023-05-10T08:14:55;4.43;;;2.90;;
73585;SDS011;61865;50.232;18.614;2023-05-10T08:17:17;5.40;;;2.75;;
73585;SDS011;61865;50.232;18.614;2023-05-10T08:19:39;5.43;;;2.88;;
73585;SDS011;61865;50.232;18.614;2023-05-10T08:22:01;5.40;;;2.88;;
73585;SDS011;61865;50.232;18.614;2023-05-10T08:24:23;4.68;;;2.63;;
73585;SDS011;61865;50.232;18.614;2023-05-10T08:26:45;6.00;;;2.60;;
73585;SDS011;61865;50.232;18.614;2023-05-10T08:29:09;5.70;;;2.58;;
73585;SDS011;61865;50.232;18.614;2023-05-10T08:31:30;6.90;;;2.63;;
73585;SDS011;61865;50.232;18.614;2023-05-10T08:33:52;6.20;;;2.35;;
73585;SDS011;61865;50.232;18.614;2023-05-10T08:36:14;5.80;;;2.85;;
73585;SDS011;61865;50.232;18.614;2023-05-10T08:38:41;4.43;;;2.90;;
73585;SDS011;61865;50.232;18.614;2023-05-10T08:41:03;6.00;;;2.63;;
73585;SDS011;61865;50.232;18.614;2023-05-10T08:43:27;11.73;;;2.67;;
73585;SDS011;61865;50.232;18.614;2023-05-10T08:45:51;5.70;;;2.50;;
73585;SDS011;61865;50.232;18.614;2023-05-10T08:48:15;4.68;;;2.63;;
73585;SDS011;61865;50.232;18.614;2023-05-10T08:50:39;3.92;;;2.55;;
73585;SDS011;61865;50.232;18.614;2023-05-10T08:53:04;5.55;;;2.47;;
73585;SDS011;61865;50.232;18.614;2023-05-10T08:55:27;9.25;;;2.80;;
73585;SDS011;61865;50.232;18.614;2023-05-10T08:57:49;5.97;;;2.85;;
73585;SDS011;61865;50.232;18.614;2023-05-10T09:00:11;4.75;;;2.38;;
73585;SDS011;61865;50.232;18.614;2023-05-10T09:02:36;6.72;;;2.50;;
73585;SDS011;61865;50.232;18.614;2023-05-10T09:04:58;3.17;;;2.38;;
73585;SDS011;61865;50.232;18.614;2023-05-10T09:07:21;8.13;;;2.45;;
73585;SDS011;61865;50.232;18.614;2023-05-10T09:09:43;3.97;;;2.50;;
73585;SDS011;61865;50.232;18.614;2023-05-10T09:12:07;6.03;;;3.05;;
73585;SDS011;61865;50.232;18.614;2023-05-10T09:14:31;5.93;;;2.40;;
73585;SDS011;61865;50.232;18.614;2023-05-10T09:16:56;5.05;;;2.45;;
73585;SDS011;61865;50.232;18.614;2023-05-10T09:19:19;5.43;;;2.40;;
73585;SDS011;61865;50.232;18.614;2023-05-10T09:21:41;4.10;;;2.38;;
73585;SDS011;61865;50.232;18.614;2023-05-10T09:24:03;6.55;;;2.67;;
73585;SDS011;61865;50.232;18.614;2023-05-10T09:26:26;4.65;;;2.70;;
73585;SDS011;61865;50.232;18.614;2023-05-10T09:28:51;4.63;;;2.70;;
73585;SDS011;61865;50.232;18.614;2023-05-10T09:31:13;5.22;;;2.30;;
73585;SDS011;61865;50.232;18.614;2023-05-10T09:33:43;8.63;;;2.70;;
73585;SDS011;61865;50.232;18.614;2023-05-10T09:36:07;6.80;;;2.80;;
73585;SDS011;61865;50.232;18.614;2023-05-10T09:38:29;7.22;;;2.83;;
73585;SDS011;61865;50.232;18.614;2023-05-10T09:41:14;3.63;;;2.40;;
73585;SDS011;61865;50.232;18.614;2023-05-10T09:43:37;5.63;;;2.72;;
73585;SDS011;61865;50.232;18.614;2023-05-10T09:45:59;5.13;;;2.47;;
73585;SDS011;61865;50.232;18.614;2023-05-10T09:50:56;5.35;;;2.67;;
73585;SDS011;61865;50.232;18.614;2023-05-10T09:53:19;3.10;;;2.20;;
73585;SDS011;61865;50.232;18.614;2023-05-10T09:55:42;5.00;;;2.50;;
73585;SDS011;61865;50.232;18.614;2023-05-10T09:58:06;21.27;;;3.47;;
73585;SDS011;61865;50.232;18.614;2023-05-10T10:00:34;5.40;;;2.80;;
73585;SDS011;61865;50.232;18.614;2023-05-10T10:02:57;7.53;;;2.72;;
73585;SDS011;61865;50.232;18.614;2023-05-10T10:05:20;5.38;;;2.60;;
73585;SDS011;61865;50.232;18.614;2023-05-10T10:07:42;4.50;;;2.30;;
73585;SDS011;61865;50.232;18.614;2023-05-10T10:10:06;7.28;;;2.35;;
73585;SDS011;61865;50.232;18.614;2023-05-10T10:12:31;3.85;;;2.20;;
73585;SDS011;61865;50.232;18.614;2023-05-10T10:14:53;6.55;;;2.47;;
73585;SDS011;61865;50.232;18.614;2023-05-10T10:17:17;5.43;;;2.75;;
73585;SDS011;61865;50.232;18.614;2023-05-10T10:19:40;8.18;;;3.00;;
73585;SDS011;61865;50.232;18.614;2023-05-10T10:22:03;7.75;;;2.67;;
73585;SDS011;61865;50.232;18.614;2023-05-10T10:24:26;6.55;;;2.70;;
73585;SDS011;61865;50.232;18.614;2023-05-10T10:26:49;5.47;;;2.40;;
73585;SDS011;61865;50.232;18.614;2023-05-10T10:29:19;6.00;;;2.40;;
73585;SDS011;61865;50.232;18.614;2023-05-10T10:31:46;6.45;;;2.50;;
73585;SDS011;61865;50.232;18.614;2023-05-10T10:34:17;4.25;;;2.45;;
73585;SDS011;61865;50.232;18.614;2023-05-10T10:36:48;4.60;;;2.53;;
73585;SDS011;61865;50.232;18.614;2023-05-10T10:39:10;6.63;;;2.70;;
73585;SDS011;61865;50.232;18.614;2023-05-10T10:41:33;5.97;;;2.50;;
73585;SDS011;61865;50.232;18.614;2023-05-10T10:47:04;6.35;;;2.60;;
73585;SDS011;61865;50.232;18.614;2023-05-10T10:49:49;13.60;;;2.92;;
73585;SDS011;61865;50.232;18.614;2023-05-10T10:52:13;4.80;;;2.45;;
73585;SDS011;61865;50.232;18.614;2023-05-10T10:54:51;5.68;;;2.55;;
73585;SDS011;61865;50.232;18.614;2023-05-10T10:57:17;4.55;;;2.47;;
73585;SDS011;61865;50.232;18.614;2023-05-10T10:59:43;8.85;;;2.65;;
73585;SDS011;61865;50.232;18.614;2023-05-10T11:02:06;5.13;;;2.42;;
73585;SDS011;61865;50.232;18.614;2023-05-10T11:04:28;5.43;;;2.65;;
73585;SDS011;61865;50.232;18.614;2023-05-10T11:07:15;6.18;;;2.72;;
73585;SDS011;61865;50.232;18.614;2023-05-10T11:09:39;3.92;;;2.38;;
73585;SDS011;61865;50.232;18.614;2023-05-10T11:12:07;8.80;;;2.58;;
73585;SDS011;61865;50.232;18.614;2023-05-10T11:14:30;6.55;;;2.38;;
73585;SDS011;61865;50.232;18.614;2023-05-10T11:16:54;5.85;;;2.42;;
73585;SDS011;61865;50.232;18.614;2023-05-10T11:19:17;5.32;;;2.50;;
73585;SDS011;61865;50.232;18.614;2023-05-10T11:21:44;12.25;;;2.60;;
73585;SDS011;61865;50.232;18.614;2023-05-10T11:24:12;4.65;;;2.72;;
73585;SDS011;61865;50.232;18.614;2023-05-10T11:26:35;4.50;;;2.60;;
73585;SDS011;61865;50.232;18.614;2023-05-10T11:28:58;5.38;;;2.63;;
73585;SDS011;61865;50.232;18.614;2023-05-10T11:31:20;5.53;;;2.50;;
73585;SDS011;61865;50.232;18.614;2023-05-10T11:33:44;5.03;;;2.75;;
73585;SDS011;61865;50.232;18.614;2023-05-10T11:36:10;5.53;;;2.50;;
73585;SDS011;61865;50.232;18.614;2023-05-10T11:38:32;5.80;;;2.63;;
73585;SDS011;61865;50.232;18.614;2023-05-10T11:40:54;4.88;;;2.50;;
73585;SDS011;61865;50.232;18.614;2023-05-10T11:43:16;5.22;;;2.45;;
73585;SDS011;61865;50.232;18.614;2023-05-10T11:45:39;5.90;;;2.50;;
73585;SDS011;61865;50.232;18.614;2023-05-10T11:48:02;5.68;;;2.40;;
73585;SDS011;61865;50.232;18.614;2023-05-10T11:50:26;5.97;;;2.92;;
73585;SDS011;61865;50.232;18.614;2023-05-10T11:52:50;7.20;;;2.40;;
73585;SDS011;61865;50.232;18.614;2023-05-10T11:55:13;5.57;;;2.70;;
73585;SDS011;61865;50.232;18.614;2023-05-10T11:57:35;5.00;;;2.70;;
73585;SDS011;61865;50.232;18.614;2023-05-10T11:59:58;5.55;;;2.42;;
73585;SDS011;61865;50.232;18.614;2023-05-10T12:02:20;4.50;;;2.42;;
73585;SDS011;61865;50.232;18.614;2023-05-10T12:04:42;7.15;;;2.40;;
73585;SDS011;61865;50.232;18.614;2023-05-10T12:07:05;3.67;;;2.35;;
73585;SDS011;61865;50.232;18.614;2023-05-10T12:09:27;6.85;;;2.22;;
73585;SDS011;61865;50.232;18.614;2023-05-10T12:11:49;6.13;;;2.50;;
73585;SDS011;61865;50.232;18.614;2023-05-10T12:14:17;3.92;;;2.35;;
73585;SDS011;61865;50.232;18.614;2023-05-10T12:16:42;6.60;;;2.30;;
73585;SDS011;61865;50.232;18.614;2023-05-10T12:19:04;7.75;;;2.50;;
73585;SDS011;61865;50.232;18.614;2023-05-10T12:21:27;11.00;;;2.40;;
73585;SDS011;61865;50.232;18.614;2023-05-10T12:23:52;5.32;;;2.47;;
73585;SDS011;61865;50.232;18.614;2023-05-10T12:26:15;6.18;;;2.28;;
73585;SDS011;61865;50.232;18.614;2023-05-10T12:28:37;5.68;;;2.60;;
73585;SDS011;61865;50.232;18.614;2023-05-10T12:30:59;3.25;;;2.15;;
73585;SDS011;61865;50.232;18.614;2023-05-10T12:33:22;4.57;;;2.33;;
73585;SDS011;61865;50.232;18.614;2023-05-10T12:35:45;9.23;;;2.42;;
73585;SDS011;61865;50.232;18.614;2023-05-10T12:38:22;3.60;;;2.30;;
73585;SDS011;61865;50.232;18.614;2023-05-10T12:40:47;4.88;;;2.50;;
73585;SDS011;61865;50.232;18.614;2023-05-10T12:43:09;5.70;;;2.33;;
73585;SDS011;61865;50.232;18.614;2023-05-10T12:45:31;4.30;;;2.10;;
73585;SDS011;61865;50.232;18.614;2023-05-10T12:47:54;6.32;;;2.30;;
73585;SDS011;61865;50.232;18.614;2023-05-10T12:50:15;3.00;;;2.08;;
73585;SDS011;61865;50.232;18.614;2023-05-10T12:52:37;5.40;;;2.17;;
73585;SDS011;61865;50.232;18.614;2023-05-10T12:55:00;5.82;;;2.50;;
73585;SDS011;61865;50.232;18.614;2023-05-10T12:57:24;3.42;;;2.22;;
73585;SDS011;61865;50.232;18.614;2023-05-10T12:59:46;3.40;;;2.17;;
73585;SDS011;61865;50.232;18.614;2023-05-10T13:02:08;4.75;;;2.45;;
73585;SDS011;61865;50.232;18.614;2023-05-10T13:04:30;5.35;;;2.03;;
73585;SDS011;61865;50.232;18.614;2023-05-10T13:06:52;4.85;;;2.20;;
73585;SDS011;61865;50.232;18.614;2023-05-10T13:09:16;6.82;;;2.35;;
73585;SDS011;61865;50.232;18.614;2023-05-10T13:11:38;6.53;;;2.22;;
73585;SDS011;61865;50.232;18.614;2023-05-10T13:14:02;4.63;;;2.20;;
73585;SDS011;61865;50.232;18.614;2023-05-10T13:16:24;3.90;;;1.90;;
73585;SDS011;61865;50.232;18.614;2023-05-10T13:18:46;4.78;;;2.20;;
73585;SDS011;61865;50.232;18.614;2023-05-10T13:21:08;2.95;;;2.25;;
73585;SDS011;61865;50.232;18.614;2023-05-10T13:23:29;2.97;;;2.05;;
73585;SDS011;61865;50.232;18.614;2023-05-10T13:25:52;5.40;;;2.95;;
73585;SDS011;61865;50.232;18.614;2023-05-10T13:28:13;5.05;;;2.00;;
73585;SDS011;61865;50.232;18.614;2023-05-10T13:30:37;19.08;;;2.65;;
73585;SDS011;61865;50.232;18.614;2023-05-10T13:32:59;7.32;;;2.13;;
73585;SDS011;61865;50.232;18.614;2023-05-10T13:35:21;4.18;;;2.30;;
73585;SDS011;61865;50.232;18.614;2023-05-10T13:37:43;7.50;;;2.20;;
73585;SDS011;61865;50.232;18.614;2023-05-10T13:40:05;8.07;;;2.40;;
73585;SDS011;61865;50.232;18.614;2023-05-10T13:42:28;6.68;;;2.20;;
73585;SDS011;61865;50.232;18.614;2023-05-10T13:44:51;5.78;;;2.25;;
73585;SDS011;61865;50.232;18.614;2023-05-10T13:47:15;26.35;;;3.20;;
73585;SDS011;61865;50.232;18.614;2023-05-10T13:49:36;7.30;;;2.35;;
73585;SDS011;61865;50.232;18.614;2023-05-10T13:51:58;3.97;;;2.30;;
73585;SDS011;61865;50.232;18.614;2023-05-10T13:54:25;6.15;;;2.30;;
73585;SDS011;61865;50.232;18.614;2023-05-10T13:56:49;4.95;;;1.98;;
73585;SDS011;61865;50.232;18.614;2023-05-10T13:59:11;26.70;;;3.05;;
73585;SDS011;61865;50.232;18.614;2023-05-10T14:01:34;7.15;;;2.47;;
73585;SDS011;61865;50.232;18.614;2023-05-10T14:03:57;6.13;;;2.30;;
73585;SDS011;61865;50.232;18.614;2023-05-10T14:06:19;3.88;;;2.20;;
73585;SDS011;61865;50.232;18.614;2023-05-10T14:08:41;7.65;;;2.53;;
73585;SDS011;61865;50.232;18.614;2023-05-10T14:11:03;7.10;;;2.70;;
73585;SDS011;61865;50.232;18.614;2023-05-10T14:13:25;3.35;;;2.20;;
73585;SDS011;61865;50.232;18.614;2023-05-10T14:15:47;7.20;;;2.67;;
73585;SDS011;61865;50.232;18.614;2023-05-10T14:18:09;5.43;;;2.10;;